sensor_id;sensor_type;location;lat;lon;timestamp;P1;durP1;ratioP1;P2;durP2;ratioP2
10090;SDS011;5084;51.386;6.778;2022-08-19T00:00:13;7.53;;;6.90;;
10090;SDS011;5084;51.386;6.778;2022-08-19T00:02:40;8.87;;;7.07;;
10090;SDS011;5084;51.386;6.778;2022-08-19T00:05:06;7.47;;;6.87;;
10090;SDS011;5084;51.386;6.778;2022-08-19T00:07:33;7.93;;;7.33;;
10090;SDS011;5084;51.386;6.778;2022-08-19T00:09:59;7.83;;;7.13;;
10090;SDS011;5084;51.386;6.778;2022-08-19T00:12:25;7.80;;;7.10;;
10090;SDS011;5084;51.386;6.778;2022-08-19T00:14:51;8.43;;;7.70;;
10090;SDS011;5084;51.386;6.778;2022-08-19T00:17:19;8.63;;;7.83;;
10090;SDS011;5084;51.386;6.778;2022-08-19T00:19:45;6.90;;;6.30;;
10090;SDS011;5084;51.386;6.778;2022-08-19T00:22:11;7.47;;;6.87;;
10090;SDS011;5084;51.386;6.778;2022-08-19T00:24:37;7.27;;;6.67;;
10090;SDS011;5084;51.386;6.778;2022-08-19T00:27:05;6.80;;;6.30;;
10090;SDS011;5084;51.386;6.778;2022-08-19T00:29:32;8.07;;;7.37;;
10090;SDS011;5084;51.386;6.778;2022-08-19T00:31:58;7.43;;;6.83;;
10090;SDS011;5084;51.386;6.778;2022-08-19T00:34:25;7.40;;;6.73;;
10090;SDS011;5084;51.386;6.778;2022-08-19T00:36:53;7.90;;;7.30;;
10090;SDS011;5084;51.386;6.778;2022-08-19T00:39:20;7.40;;;6.70;;
10090;SDS011;5084;51.386;6.778;2022-08-19T00:41:46;7.30;;;6.60;;
10090;SDS011;5084;51.386;6.778;2022-08-19T00:44:24;7.33;;;6.50;;
10090;SDS011;5084;51.386;6.778;2022-08-19T00:46:51;7.10;;;6.57;;
10090;SDS011;5084;51.386;6.778;2022-08-19T00:51:50;8.00;;;7.30;;
10090;SDS011;5084;51.386;6.778;2022-08-19T00:54:17;7.07;;;6.50;;
10090;SDS011;5084;51.386;6.778;2022-08-19T00:56:44;6.87;;;6.37;;
10090;SDS011;5084;51.386;6.778;2022-08-19T00:59:10;7.50;;;6.80;;
10090;SDS011;5084;51.386;6.778;2022-08-19T01:01:37;8.27;;;6.77;;
10090;SDS011;5084;51.386;6.778;2022-08-19T01:04:04;7.00;;;6.50;;
10090;SDS011;5084;51.386;6.778;2022-08-19T01:06:30;7.50;;;6.90;;
10090;SDS011;5084;51.386;6.778;2022-08-19T01:08:58;7.47;;;6.90;;
10090;SDS011;5084;51.386;6.778;2022-08-19T01:11:24;7.20;;;6.60;;
10090;SDS011;5084;51.386;6.778;2022-08-19T01:13:51;6.43;;;5.93;;
10090;SDS011;5084;51.386;6.778;2022-08-19T01:16:19;7.67;;;7.07;;
10090;SDS011;5084;51.386;6.778;2022-08-19T01:18:46;7.80;;;7.10;;
10090;SDS011;5084;51.386;6.778;2022-08-19T01:21:32;7.30;;;6.70;;
10090;SDS011;5084;51.386;6.778;2022-08-19T01:23:59;7.60;;;7.00;;
10090;SDS011;5084;51.386;6.778;2022-08-19T01:26:26;7.23;;;6.70;;
10090;SDS011;5084;51.386;6.778;2022-08-19T01:28:54;8.00;;;7.23;;
10090;SDS011;5084;51.386;6.778;2022-08-19T01:31:22;7.40;;;6.80;;
10090;SDS011;5084;51.386;6.778;2022-08-19T01:33:48;6.83;;;6.33;;
10090;SDS011;5084;51.386;6.778;2022-08-19T01:36:16;7.10;;;6.50;;
10090;SDS011;5084;51.386;6.778;2022-08-19T01:38:47;7.90;;;7.30;;
10090;SDS011;5084;51.386;6.778;2022-08-19T01:41:14;7.47;;;6.77;;
10090;SDS011;5084;51.386;6.778;2022-08-19T01:43:41;7.30;;;6.80;;
10090;SDS011;5084;51.386;6.778;2022-08-19T01:46:07;7.63;;;7.03;;
10090;SDS011;5084;51.386;6.778;2022-08-19T01:48:34;7.77;;;7.17;;
10090;SDS011;5084;51.386;6.778;2022-08-19T01:51:00;7.30;;;6.67;;
10090;SDS011;5084;51.386;6.778;2022-08-19T01:53:27;7.93;;;7.23;;
10090;SDS011;5084;51.386;6.778;2022-08-19T01:55:53;8.40;;;7.80;;
10090;SDS011;5084;51.386;6.778;2022-08-19T01:58:19;7.60;;;6.97;;
10090;SDS011;5084;51.386;6.778;2022-08-19T02:00:47;8.27;;;7.63;;
10090;SDS011;5084;51.386;6.778;2022-08-19T02:03:13;10.97;;;10.13;;
10090;SDS011;5084;51.386;6.778;2022-08-19T02:05:39;8.17;;;7.57;;
10090;SDS011;5084;51.386;6.778;2022-08-19T02:08:06;8.07;;;7.47;;
10090;SDS011;5084;51.386;6.778;2022-08-19T02:10:33;7.47;;;6.90;;
10090;SDS011;5084;51.386;6.778;2022-08-19T02:12:59;8.50;;;7.67;;
10090;SDS011;5084;51.386;6.778;2022-08-19T02:15:25;8.33;;;7.63;;
10090;SDS011;5084;51.386;6.778;2022-08-19T02:17:51;8.33;;;7.63;;
10090;SDS011;5084;51.386;6.778;2022-08-19T02:20:17;8.10;;;7.40;;
10090;SDS011;5084;51.386;6.778;2022-08-19T02:22:43;7.90;;;7.30;;
10090;SDS011;5084;51.386;6.778;2022-08-19T02:25:10;8.63;;;7.93;;
10090;SDS011;5084;51.386;6.778;2022-08-19T02:27:37;8.03;;;7.37;;
10090;SDS011;5084;51.386;6.778;2022-08-19T02:30:04;8.30;;;7.67;;
10090;SDS011;5084;51.386;6.778;2022-08-19T02:32:31;7.87;;;7.27;;
10090;SDS011;5084;51.386;6.778;2022-08-19T02:34:58;8.00;;;7.40;;
10090;SDS011;5084;51.386;6.778;2022-08-19T02:37:24;8.97;;;8.17;;
10090;SDS011;5084;51.386;6.778;2022-08-19T02:40:09;7.33;;;6.73;;
10090;SDS011;5084;51.386;6.778;2022-08-19T02:42:35;9.17;;;8.27;;
10090;SDS011;5084;51.386;6.778;2022-08-19T02:45:01;7.60;;;7.00;;
10090;SDS011;5084;51.386;6.778;2022-08-19T02:47:27;8.33;;;7.63;;
10090;SDS011;5084;51.386;6.778;2022-08-19T02:49:53;7.90;;;7.13;;
10090;SDS011;5084;51.386;6.778;2022-08-19T02:52:19;8.80;;;8.10;;
10090;SDS011;5084;51.386;6.778;2022-08-19T02:54:48;8.83;;;8.03;;
10090;SDS011;5084;51.386;6.778;2022-08-19T02:57:14;8.70;;;8.10;;
10090;SDS011;5084;51.386;6.778;2022-08-19T02:59:40;8.80;;;7.90;;
10090;SDS011;5084;51.386;6.778;2022-08-19T03:02:07;8.50;;;7.90;;
10090;SDS011;5084;51.386;6.778;2022-08-19T03:04:33;8.57;;;7.97;;
10090;SDS011;5084;51.386;6.778;2022-08-19T03:06:59;7.70;;;7.10;;
10090;SDS011;5084;51.386;6.778;2022-08-19T03:09:25;8.03;;;7.43;;
10090;SDS011;5084;51.386;6.778;2022-08-19T03:11:51;8.57;;;7.77;;
10090;SDS011;5084;51.386;6.778;2022-08-19T03:14:17;7.73;;;7.03;;
10090;SDS011;5084;51.386;6.778;2022-08-19T03:16:46;20.07;;;18.83;;
10090;SDS011;5084;51.386;6.778;2022-08-19T03:19:12;7.60;;;7.00;;
10090;SDS011;5084;51.386;6.778;2022-08-19T03:21:39;8.37;;;7.67;;
10090;SDS011;5084;51.386;6.778;2022-08-19T03:24:06;7.73;;;7.13;;
10090;SDS011;5084;51.386;6.778;2022-08-19T03:26:33;8.00;;;7.40;;
10090;SDS011;5084;51.386;6.778;2022-08-19T03:29:03;8.17;;;7.33;;
10090;SDS011;5084;51.386;6.778;2022-08-19T03:31:29;10.37;;;9.67;;
10090;SDS011;5084;51.386;6.778;2022-08-19T03:33:56;8.57;;;7.77;;
10090;SDS011;5084;51.386;6.778;2022-08-19T03:36:23;8.67;;;7.87;;
10090;SDS011;5084;51.386;6.778;2022-08-19T03:38:51;7.60;;;7.00;;
10090;SDS011;5084;51.386;6.778;2022-08-19T03:41:25;8.77;;;8.07;;
10090;SDS011;5084;51.386;6.778;2022-08-19T03:43:52;7.97;;;7.13;;
10090;SDS011;5084;51.386;6.778;2022-08-19T03:46:23;7.97;;;7.37;;
10090;SDS011;5084;51.386;6.778;2022-08-19T03:48:50;8.00;;;7.30;;
10090;SDS011;5084;51.386;6.778;2022-08-19T03:51:22;8.33;;;7.57;;
10090;SDS011;5084;51.386;6.778;2022-08-19T03:53:50;8.90;;;7.77;;
10090;SDS011;5084;51.386;6.778;2022-08-19T03:56:16;8.83;;;8.03;;
10090;SDS011;5084;51.386;6.778;2022-08-19T03:58:43;8.37;;;7.63;;
10090;SDS011;5084;51.386;6.778;2022-08-19T04:01:10;11.03;;;10.27;;
10090;SDS011;5084;51.386;6.778;2022-08-19T04:03:37;8.70;;;7.80;;
10090;SDS011;5084;51.386;6.778;2022-08-19T04:06:22;8.53;;;7.83;;
10090;SDS011;5084;51.386;6.778;2022-08-19T04:08:49;7.77;;;7.17;;
10090;SDS011;5084;51.386;6.778;2022-08-19T04:11:17;7.20;;;6.60;;
10090;SDS011;5084;51.386;6.778;2022-08-19T04:13:43;7.70;;;7.10;;
10090;SDS011;5084;51.386;6.778;2022-08-19T04:16:10;9.00;;;8.30;;
10090;SDS011;5084;51.386;6.778;2022-08-19T04:18:36;9.13;;;8.43;;
10090;SDS011;5084;51.386;6.778;2022-08-19T04:21:03;9.20;;;8.33;;
10090;SDS011;5084;51.386;6.778;2022-08-19T04:23:29;9.67;;;8.87;;
10090;SDS011;5084;51.386;6.778;2022-08-19T04:25:56;8.73;;;8.13;;
10090;SDS011;5084;51.386;6.778;2022-08-19T04:28:23;9.27;;;8.47;;
10090;SDS011;5084;51.386;6.778;2022-08-19T04:30:53;9.90;;;9.10;;
10090;SDS011;5084;51.386;6.778;2022-08-19T04:33:21;11.53;;;10.63;;
10090;SDS011;5084;51.386;6.778;2022-08-19T04:35:54;9.70;;;8.97;;
10090;SDS011;5084;51.386;6.778;2022-08-19T04:38:23;9.70;;;8.80;;
10090;SDS011;5084;51.386;6.778;2022-08-19T04:40:50;9.77;;;8.73;;
10090;SDS011;5084;51.386;6.778;2022-08-19T04:43:36;9.73;;;8.73;;
10090;SDS011;5084;51.386;6.778;2022-08-19T04:46:06;9.47;;;8.63;;
10090;SDS011;5084;51.386;6.778;2022-08-19T04:48:33;9.30;;;8.60;;
10090;SDS011;5084;51.386;6.778;2022-08-19T04:50:59;9.03;;;8.33;;
10090;SDS011;5084;51.386;6.778;2022-08-19T04:53:29;10.07;;;8.67;;
10090;SDS011;5084;51.386;6.778;2022-08-19T04:55:56;9.33;;;8.53;;
10090;SDS011;5084;51.386;6.778;2022-08-19T04:58:23;11.37;;;10.47;;
10090;SDS011;5084;51.386;6.778;2022-08-19T05:00:49;14.37;;;13.27;;
10090;SDS011;5084;51.386;6.778;2022-08-19T05:03:16;10.40;;;9.50;;
10090;SDS011;5084;51.386;6.778;2022-08-19T05:05:43;11.63;;;10.63;;
10090;SDS011;5084;51.386;6.778;2022-08-19T05:08:09;11.37;;;10.37;;
10090;SDS011;5084;51.386;6.778;2022-08-19T05:10:36;12.50;;;11.27;;
10090;SDS011;5084;51.386;6.778;2022-08-19T05:13:03;11.47;;;10.57;;
10090;SDS011;5084;51.386;6.778;2022-08-19T05:15:29;12.73;;;11.43;;
10090;SDS011;5084;51.386;6.778;2022-08-19T05:17:55;14.37;;;12.83;;
10090;SDS011;5084;51.386;6.778;2022-08-19T05:20:40;13.37;;;12.10;;
10090;SDS011;5084;51.386;6.778;2022-08-19T05:23:24;14.03;;;12.47;;
10090;SDS011;5084;51.386;6.778;2022-08-19T05:25:51;12.63;;;11.33;;
10090;SDS011;5084;51.386;6.778;2022-08-19T05:28:18;14.63;;;12.37;;
10090;SDS011;5084;51.386;6.778;2022-08-19T05:30:44;14.37;;;13.17;;
10090;SDS011;5084;51.386;6.778;2022-08-19T05:33:11;13.23;;;11.97;;
10090;SDS011;5084;51.386;6.778;2022-08-19T05:35:38;15.33;;;13.97;;
10090;SDS011;5084;51.386;6.778;2022-08-19T05:38:05;15.93;;;14.37;;
10090;SDS011;5084;51.386;6.778;2022-08-19T05:40:34;16.47;;;14.10;;
10090;SDS011;5084;51.386;6.778;2022-08-19T05:43:05;16.90;;;15.20;;
10090;SDS011;5084;51.386;6.778;2022-08-19T05:45:31;16.40;;;14.67;;
10090;SDS011;5084;51.386;6.778;2022-08-19T05:47:58;17.60;;;15.70;;
10090;SDS011;5084;51.386;6.778;2022-08-19T05:50:24;20.37;;;16.30;;
10090;SDS011;5084;51.386;6.778;2022-08-19T05:52:51;21.90;;;19.80;;
10090;SDS011;5084;51.386;6.778;2022-08-19T05:55:17;23.20;;;21.10;;
10090;SDS011;5084;51.386;6.778;2022-08-19T05:57:48;23.90;;;21.10;;
10090;SDS011;5084;51.386;6.778;2022-08-19T06:00:14;22.37;;;20.10;;
10090;SDS011;5084;51.386;6.778;2022-08-19T06:02:41;22.73;;;20.40;;
10090;SDS011;5084;51.386;6.778;2022-08-19T06:05:07;23.37;;;21.17;;
10090;SDS011;5084;51.386;6.778;2022-08-19T06:07:37;26.20;;;23.57;;
10090;SDS011;5084;51.386;6.778;2022-08-19T06:10:04;28.93;;;25.83;;
10090;SDS011;5084;51.386;6.778;2022-08-19T06:12:32;30.03;;;27.23;;
10090;SDS011;5084;51.386;6.778;2022-08-19T06:15:05;29.63;;;26.60;;
10090;SDS011;5084;51.386;6.778;2022-08-19T06:17:32;27.80;;;25.13;;
10090;SDS011;5084;51.386;6.778;2022-08-19T06:20:00;32.03;;;28.93;;
10090;SDS011;5084;51.386;6.778;2022-08-19T06:22:29;32.63;;;29.33;;
10090;SDS011;5084;51.386;6.778;2022-08-19T06:24:55;37.93;;;34.23;;
10090;SDS011;5084;51.386;6.778;2022-08-19T06:27:21;38.73;;;34.73;;
10090;SDS011;5084;51.386;6.778;2022-08-19T06:29:48;44.10;;;39.50;;
10090;SDS011;5084;51.386;6.778;2022-08-19T06:32:16;42.77;;;38.20;;
10090;SDS011;5084;51.386;6.778;2022-08-19T06:34:49;37.67;;;33.97;;
10090;SDS011;5084;51.386;6.778;2022-08-19T06:37:15;39.27;;;35.53;;
10090;SDS011;5084;51.386;6.778;2022-08-19T06:39:42;38.63;;;34.83;;
10090;SDS011;5084;51.386;6.778;2022-08-19T06:42:09;38.20;;;34.40;;
10090;SDS011;5084;51.386;6.778;2022-08-19T06:44:36;36.73;;;33.07;;
10090;SDS011;5084;51.386;6.778;2022-08-19T06:47:04;40.00;;;35.47;;
10090;SDS011;5084;51.386;6.778;2022-08-19T06:49:30;41.60;;;37.20;;
10090;SDS011;5084;51.386;6.778;2022-08-19T06:51:57;39.57;;;35.60;;
10090;SDS011;5084;51.386;6.778;2022-08-19T06:54:23;41.47;;;37.17;;
10090;SDS011;5084;51.386;6.778;2022-08-19T06:56:51;41.40;;;37.03;;
10090;SDS011;5084;51.386;6.778;2022-08-19T06:59:18;40.90;;;36.87;;
10090;SDS011;5084;51.386;6.778;2022-08-19T07:01:55;44.33;;;39.83;;
10090;SDS011;5084;51.386;6.778;2022-08-19T07:04:29;47.13;;;41.23;;
10090;SDS011;5084;51.386;6.778;2022-08-19T07:07:03;42.43;;;38.03;;
10090;SDS011;5084;51.386;6.778;2022-08-19T07:09:33;44.00;;;39.47;;
10090;SDS011;5084;51.386;6.778;2022-08-19T07:12:02;42.43;;;37.83;;
10090;SDS011;5084;51.386;6.778;2022-08-19T07:14:29;44.13;;;39.43;;
10090;SDS011;5084;51.386;6.778;2022-08-19T07:16:56;44.03;;;39.40;;
10090;SDS011;5084;51.386;6.778;2022-08-19T07:19:24;46.07;;;39.60;;
10090;SDS011;5084;51.386;6.778;2022-08-19T07:21:52;42.07;;;37.80;;
10090;SDS011;5084;51.386;6.778;2022-08-19T07:24:22;42.33;;;37.87;;
10090;SDS011;5084;51.386;6.778;2022-08-19T07:26:49;38.13;;;34.27;;
10090;SDS011;5084;51.386;6.778;2022-08-19T07:29:15;38.80;;;34.70;;
10090;SDS011;5084;51.386;6.778;2022-08-19T07:31:42;35.63;;;31.97;;
10090;SDS011;5084;51.386;6.778;2022-08-19T07:34:11;33.40;;;29.97;;
10090;SDS011;5084;51.386;6.778;2022-08-19T07:36:40;32.73;;;29.27;;
10090;SDS011;5084;51.386;6.778;2022-08-19T07:39:12;29.37;;;26.47;;
10090;SDS011;5084;51.386;6.778;2022-08-19T07:41:39;30.63;;;27.63;;
10090;SDS011;5084;51.386;6.778;2022-08-19T07:44:05;29.87;;;26.67;;
10090;SDS011;5084;51.386;6.778;2022-08-19T07:46:33;29.37;;;26.30;;
10090;SDS011;5084;51.386;6.778;2022-08-19T07:49:02;28.17;;;25.27;;
10090;SDS011;5084;51.386;6.778;2022-08-19T07:51:29;32.33;;;29.15;;
10090;SDS011;5084;51.386;6.778;2022-08-19T07:53:55;28.37;;;25.53;;
10090;SDS011;5084;51.386;6.778;2022-08-19T07:56:21;31.83;;;27.00;;
10090;SDS011;5084;51.386;6.778;2022-08-19T07:58:51;28.83;;;25.80;;
10090;SDS011;5084;51.386;6.778;2022-08-19T08:01:19;27.00;;;24.20;;
10090;SDS011;5084;51.386;6.778;2022-08-19T08:03:46;27.00;;;24.13;;
10090;SDS011;5084;51.386;6.778;2022-08-19T08:06:31;24.73;;;22.23;;
10090;SDS011;5084;51.386;6.778;2022-08-19T08:09:17;27.30;;;21.87;;
10090;SDS011;5084;51.386;6.778;2022-08-19T08:11:50;22.73;;;20.13;;
10090;SDS011;5084;51.386;6.778;2022-08-19T08:14:30;21.63;;;19.43;;
10090;SDS011;5084;51.386;6.778;2022-08-19T08:16:56;20.67;;;18.67;;
10090;SDS011;5084;51.386;6.778;2022-08-19T08:19:23;21.93;;;17.93;;
10090;SDS011;5084;51.386;6.778;2022-08-19T08:21:49;20.97;;;18.90;;
10090;SDS011;5084;51.386;6.778;2022-08-19T08:24:16;21.77;;;19.67;;
10090;SDS011;5084;51.386;6.778;2022-08-19T08:26:42;21.67;;;18.83;;
10090;SDS011;5084;51.386;6.778;2022-08-19T08:29:09;20.60;;;18.63;;
10090;SDS011;5084;51.386;6.778;2022-08-19T08:31:37;20.10;;;18.30;;
10090;SDS011;5084;51.386;6.778;2022-08-19T08:34:06;19.83;;;17.80;;
10090;SDS011;5084;51.386;6.778;2022-08-19T08:36:35;20.07;;;17.97;;
10090;SDS011;5084;51.386;6.778;2022-08-19T08:39:05;20.27;;;18.47;;
10090;SDS011;5084;51.386;6.778;2022-08-19T08:43:58;17.53;;;15.90;;
10090;SDS011;5084;51.386;6.778;2022-08-19T08:48:59;19.20;;;17.30;;
10090;SDS011;5084;51.386;6.778;2022-08-19T08:51:28;17.87;;;16.07;;
10090;SDS011;5084;51.386;6.778;2022-08-19T08:53:55;18.77;;;17.00;;
10090;SDS011;5084;51.386;6.778;2022-08-19T08:56:22;21.33;;;19.23;;
10090;SDS011;5084;51.386;6.778;2022-08-19T08:58:51;19.40;;;17.50;;
10090;SDS011;5084;51.386;6.778;2022-08-19T09:01:20;21.10;;;19.13;;
10090;SDS011;5084;51.386;6.778;2022-08-19T09:03:47;25.30;;;22.60;;
10090;SDS011;5084;51.386;6.778;2022-08-19T09:06:26;23.23;;;20.87;;
10090;SDS011;5084;51.386;6.778;2022-08-19T09:09:14;22.80;;;20.47;;
10090;SDS011;5084;51.386;6.778;2022-08-19T09:14:32;21.43;;;19.43;;
10090;SDS011;5084;51.386;6.778;2022-08-19T09:17:06;24.00;;;21.63;;
10090;SDS011;5084;51.386;6.778;2022-08-19T09:19:32;22.00;;;19.90;;
10090;SDS011;5084;51.386;6.778;2022-08-19T09:21:59;21.07;;;19.07;;
10090;SDS011;5084;51.386;6.778;2022-08-19T09:24:25;20.93;;;18.93;;
10090;SDS011;5084;51.386;6.778;2022-08-19T09:26:51;22.57;;;20.33;;
10090;SDS011;5084;51.386;6.778;2022-08-19T09:29:18;20.27;;;18.23;;
10090;SDS011;5084;51.386;6.778;2022-08-19T09:31:45;21.03;;;18.93;;
10090;SDS011;5084;51.386;6.778;2022-08-19T09:34:12;22.70;;;20.27;;
10090;SDS011;5084;51.386;6.778;2022-08-19T09:36:38;21.17;;;19.17;;
10090;SDS011;5084;51.386;6.778;2022-08-19T09:39:05;19.87;;;17.87;;
10090;SDS011;5084;51.386;6.778;2022-08-19T09:41:32;21.37;;;19.37;;
10090;SDS011;5084;51.386;6.778;2022-08-19T09:43:58;23.03;;;20.47;;
10090;SDS011;5084;51.386;6.778;2022-08-19T09:46:26;23.87;;;21.47;;
10090;SDS011;5084;51.386;6.778;2022-08-19T09:48:53;25.10;;;22.17;;
10090;SDS011;5084;51.386;6.778;2022-08-19T09:51:24;21.53;;;19.53;;
10090;SDS011;5084;51.386;6.778;2022-08-19T09:53:51;22.87;;;20.47;;
10090;SDS011;5084;51.386;6.778;2022-08-19T09:56:22;22.83;;;19.67;;
10090;SDS011;5084;51.386;6.778;2022-08-19T09:58:49;21.80;;;19.67;;
10090;SDS011;5084;51.386;6.778;2022-08-19T10:01:23;23.00;;;20.70;;
10090;SDS011;5084;51.386;6.778;2022-08-19T10:03:51;24.03;;;20.50;;
10090;SDS011;5084;51.386;6.778;2022-08-19T10:06:18;22.27;;;20.03;;
10090;SDS011;5084;51.386;6.778;2022-08-19T10:08:45;24.30;;;20.10;;
10090;SDS011;5084;51.386;6.778;2022-08-19T10:11:21;22.20;;;19.40;;
10090;SDS011;5084;51.386;6.778;2022-08-19T10:13:47;21.93;;;19.63;;
10090;SDS011;5084;51.386;6.778;2022-08-19T10:16:15;21.17;;;18.90;;
10090;SDS011;5084;51.386;6.778;2022-08-19T10:18:43;19.97;;;18.00;;
10090;SDS011;5084;51.386;6.778;2022-08-19T10:21:17;19.20;;;17.30;;
10090;SDS011;5084;51.386;6.778;2022-08-19T10:23:45;19.23;;;17.33;;
10090;SDS011;5084;51.386;6.778;2022-08-19T10:26:13;20.33;;;18.20;;
10090;SDS011;5084;51.386;6.778;2022-08-19T10:28:39;18.87;;;16.93;;
10090;SDS011;5084;51.386;6.778;2022-08-19T10:31:07;18.90;;;17.13;;
10090;SDS011;5084;51.386;6.778;2022-08-19T10:33:34;18.67;;;15.23;;
10090;SDS011;5084;51.386;6.778;2022-08-19T10:36:01;16.97;;;15.23;;
10090;SDS011;5084;51.386;6.778;2022-08-19T10:38:27;15.70;;;14.30;;
10090;SDS011;5084;51.386;6.778;2022-08-19T10:40:54;19.80;;;17.20;;
10090;SDS011;5084;51.386;6.778;2022-08-19T10:43:20;18.97;;;15.37;;
10090;SDS011;5084;51.386;6.778;2022-08-19T10:45:53;16.03;;;14.53;;
10090;SDS011;5084;51.386;6.778;2022-08-19T10:48:24;19.73;;;15.17;;
10090;SDS011;5084;51.386;6.778;2022-08-19T10:50:50;17.17;;;14.43;;
10090;SDS011;5084;51.386;6.778;2022-08-19T10:53:35;17.83;;;15.63;;
10090;SDS011;5084;51.386;6.778;2022-08-19T10:56:04;14.20;;;12.17;;
10090;SDS011;5084;51.386;6.778;2022-08-19T10:58:49;15.17;;;13.57;;
10090;SDS011;5084;51.386;6.778;2022-08-19T11:01:15;13.80;;;12.70;;
10090;SDS011;5084;51.386;6.778;2022-08-19T11:03:41;14.53;;;13.20;;
10090;SDS011;5084;51.386;6.778;2022-08-19T11:06:10;13.93;;;12.67;;
10090;SDS011;5084;51.386;6.778;2022-08-19T11:08:36;16.17;;;14.60;;
10090;SDS011;5084;51.386;6.778;2022-08-19T11:11:03;12.43;;;11.00;;
10090;SDS011;5084;51.386;6.778;2022-08-19T11:13:31;14.00;;;12.70;;
10090;SDS011;5084;51.386;6.778;2022-08-19T11:16:01;15.17;;;13.43;;
10090;SDS011;5084;51.386;6.778;2022-08-19T11:18:28;12.70;;;11.50;;
10090;SDS011;5084;51.386;6.778;2022-08-19T11:20:54;13.73;;;12.30;;
10090;SDS011;5084;51.386;6.778;2022-08-19T11:23:23;14.87;;;12.20;;
10090;SDS011;5084;51.386;6.778;2022-08-19T11:25:52;12.90;;;11.73;;
10090;SDS011;5084;51.386;6.778;2022-08-19T11:28:18;12.10;;;11.10;;
10090;SDS011;5084;51.386;6.778;2022-08-19T11:30:44;14.13;;;11.30;;
10090;SDS011;5084;51.386;6.778;2022-08-19T11:33:11;11.67;;;9.60;;
10090;SDS011;5084;51.386;6.778;2022-08-19T11:35:38;13.23;;;10.07;;
10090;SDS011;5084;51.386;6.778;2022-08-19T11:38:05;11.30;;;10.07;;
10090;SDS011;5084;51.386;6.778;2022-08-19T11:40:31;12.30;;;11.10;;
10090;SDS011;5084;51.386;6.778;2022-08-19T11:42:58;15.00;;;10.93;;
10090;SDS011;5084;51.386;6.778;2022-08-19T11:45:25;11.33;;;10.30;;
10090;SDS011;5084;51.386;6.778;2022-08-19T11:47:52;12.93;;;11.57;;
10090;SDS011;5084;51.386;6.778;2022-08-19T11:50:18;12.90;;;11.50;;
10090;SDS011;5084;51.386;6.778;2022-08-19T11:52:44;11.87;;;10.67;;
10090;SDS011;5084;51.386;6.778;2022-08-19T11:55:11;10.87;;;9.80;;
10090;SDS011;5084;51.386;6.778;2022-08-19T11:57:38;12.77;;;11.07;;
10090;SDS011;5084;51.386;6.778;2022-08-19T12:00:06;8.43;;;7.63;;
10090;SDS011;5084;51.386;6.778;2022-08-19T12:02:33;7.40;;;6.80;;
10090;SDS011;5084;51.386;6.778;2022-08-19T12:04:59;10.00;;;7.27;;
10090;SDS011;5084;51.386;6.778;2022-08-19T12:07:31;9.17;;;8.30;;
10090;SDS011;5084;51.386;6.778;2022-08-19T12:09:59;8.90;;;8.20;;
10090;SDS011;5084;51.386;6.778;2022-08-19T12:12:26;8.87;;;7.47;;
10090;SDS011;5084;51.386;6.778;2022-08-19T12:14:52;9.97;;;8.93;;
10090;SDS011;5084;51.386;6.778;2022-08-19T12:17:27;10.97;;;8.47;;
10090;SDS011;5084;51.386;6.778;2022-08-19T12:19:55;9.50;;;8.43;;
10090;SDS011;5084;51.386;6.778;2022-08-19T12:22:22;11.53;;;9.40;;
10090;SDS011;5084;51.386;6.778;2022-08-19T12:24:48;8.73;;;7.80;;
10090;SDS011;5084;51.386;6.778;2022-08-19T12:27:15;8.50;;;7.67;;
10090;SDS011;5084;51.386;6.778;2022-08-19T12:29:42;8.57;;;7.07;;
10090;SDS011;5084;51.386;6.778;2022-08-19T12:32:15;7.27;;;6.57;;
10090;SDS011;5084;51.386;6.778;2022-08-19T12:34:41;9.37;;;6.27;;
10090;SDS011;5084;51.386;6.778;2022-08-19T12:37:08;7.10;;;6.40;;
10090;SDS011;5084;51.386;6.778;2022-08-19T12:39:39;7.47;;;6.30;;
10090;SDS011;5084;51.386;6.778;2022-08-19T12:42:07;9.03;;;7.20;;
10090;SDS011;5084;51.386;6.778;2022-08-19T12:44:34;9.13;;;7.97;;
10090;SDS011;5084;51.386;6.778;2022-08-19T12:47:01;11.00;;;8.93;;
10090;SDS011;5084;51.386;6.778;2022-08-19T12:49:28;7.67;;;7.07;;
10090;SDS011;5084;51.386;6.778;2022-08-19T12:51:54;7.27;;;6.57;;
10090;SDS011;5084;51.386;6.778;2022-08-19T12:54:22;5.97;;;5.37;;
10090;SDS011;5084;51.386;6.778;2022-08-19T12:56:48;7.27;;;5.67;;
10090;SDS011;5084;51.386;6.778;2022-08-19T12:59:15;8.97;;;5.57;;
10090;SDS011;5084;51.386;6.778;2022-08-19T13:01:43;7.90;;;7.30;;
10090;SDS011;5084;51.386;6.778;2022-08-19T13:04:09;8.63;;;7.93;;
10090;SDS011;5084;51.386;6.778;2022-08-19T13:06:35;8.17;;;7.47;;
10090;SDS011;5084;51.386;6.778;2022-08-19T13:09:02;11.33;;;7.00;;
10090;SDS011;5084;51.386;6.778;2022-08-19T13:11:28;8.60;;;5.70;;
10090;SDS011;5084;51.386;6.778;2022-08-19T13:13:57;5.10;;;4.70;;
10090;SDS011;5084;51.386;6.778;2022-08-19T13:16:24;6.03;;;5.43;;
10090;SDS011;5084;51.386;6.778;2022-08-19T13:18:54;5.83;;;4.60;;
10090;SDS011;5084;51.386;6.778;2022-08-19T13:21:22;6.97;;;6.27;;
10090;SDS011;5084;51.386;6.778;2022-08-19T13:23:48;6.83;;;6.17;;
10090;SDS011;5084;51.386;6.778;2022-08-19T13:26:15;7.37;;;6.40;;
10090;SDS011;5084;51.386;6.778;2022-08-19T13:28:42;7.83;;;6.53;;
10090;SDS011;5084;51.386;6.778;2022-08-19T13:31:29;9.37;;;8.13;;
10090;SDS011;5084;51.386;6.778;2022-08-19T13:34:15;7.77;;;7.07;;
10090;SDS011;5084;51.386;6.778;2022-08-19T13:36:41;6.50;;;5.90;;
10090;SDS011;5084;51.386;6.778;2022-08-19T13:39:07;7.80;;;7.10;;
10090;SDS011;5084;51.386;6.778;2022-08-19T13:41:34;6.47;;;5.97;;
10090;SDS011;5084;51.386;6.778;2022-08-19T13:44:01;7.40;;;5.20;;
10090;SDS011;5084;51.386;6.778;2022-08-19T13:46:27;6.00;;;5.47;;
10090;SDS011;5084;51.386;6.778;2022-08-19T13:48:57;6.03;;;5.53;;
10090;SDS011;5084;51.386;6.778;2022-08-19T13:51:23;7.17;;;6.37;;
10090;SDS011;5084;51.386;6.778;2022-08-19T13:53:49;6.90;;;6.00;;
10090;SDS011;5084;51.386;6.778;2022-08-19T13:56:17;7.83;;;5.93;;
10090;SDS011;5084;51.386;6.778;2022-08-19T13:58:44;7.97;;;6.17;;
10090;SDS011;5084;51.386;6.778;2022-08-19T14:01:11;8.30;;;7.60;;
10090;SDS011;5084;51.386;6.778;2022-08-19T14:03:37;5.40;;;4.90;;
10090;SDS011;5084;51.386;6.778;2022-08-19T14:06:03;6.63;;;6.03;;
10090;SDS011;5084;51.386;6.778;2022-08-19T14:08:30;6.63;;;5.70;;
10090;SDS011;5084;51.386;6.778;2022-08-19T14:11:00;8.63;;;6.53;;
10090;SDS011;5084;51.386;6.778;2022-08-19T14:13:26;6.60;;;6.00;;
10090;SDS011;5084;51.386;6.778;2022-08-19T14:15:52;11.13;;;5.43;;
10090;SDS011;5084;51.386;6.778;2022-08-19T14:18:18;8.07;;;5.83;;
10090;SDS011;5084;51.386;6.778;2022-08-19T14:20:44;6.67;;;5.23;;
10090;SDS011;5084;51.386;6.778;2022-08-19T14:23:10;8.27;;;7.43;;
10090;SDS011;5084;51.386;6.778;2022-08-19T14:25:37;5.87;;;5.23;;
10090;SDS011;5084;51.386;6.778;2022-08-19T14:28:04;7.97;;;5.93;;
10090;SDS011;5084;51.386;6.778;2022-08-19T14:30:33;7.30;;;5.73;;
10090;SDS011;5084;51.386;6.778;2022-08-19T14:33:00;8.70;;;5.20;;
10090;SDS011;5084;51.386;6.778;2022-08-19T14:35:27;6.90;;;6.27;;
10090;SDS011;5084;51.386;6.778;2022-08-19T14:37:54;6.33;;;5.73;;
10090;SDS011;5084;51.386;6.778;2022-08-19T14:40:23;6.27;;;5.30;;
10090;SDS011;5084;51.386;6.778;2022-08-19T14:42:53;6.13;;;5.53;;
10090;SDS011;5084;51.386;6.778;2022-08-19T14:45:29;5.77;;;4.67;;
10090;SDS011;5084;51.386;6.778;2022-08-19T14:47:55;7.70;;;5.30;;
10090;SDS011;5084;51.386;6.778;2022-08-19T14:50:21;7.00;;;5.50;;
10090;SDS011;5084;51.386;6.778;2022-08-19T14:52:48;7.30;;;4.93;;
10090;SDS011;5084;51.386;6.778;2022-08-19T14:55:15;4.97;;;4.47;;
10090;SDS011;5084;51.386;6.778;2022-08-19T14:57:41;6.53;;;5.13;;
10090;SDS011;5084;51.386;6.778;2022-08-19T15:00:12;5.68;;;5.10;;
10090;SDS011;5084;51.386;6.778;2022-08-19T15:02:39;5.80;;;5.30;;